Station: Khancoban  

  Atmospheric Gas Attenuation - ITU Rec 676-11   ----------------- dB/100km -----------------
Date Time Temp RH % AH g/m3 Dew Point Wind Direction Speed kph Gust kph Barometer mB Rainfall Since 9am 24GHz 47GHz 76GHz 122GHz 134GHz 241GHz
08/05 12:30 9.8 90 8.35 8.2 6 7 1021.7 0 19.2 27.0 41.2 108.0 100.9 346.5
08/05 12:20 10.1 93 8.8 9 6 7 1021.8 0 20.2 27.7 43.0 112.7 106.8 367.2
08/05 12:10 9.9 93 8.69 8.8 7 9 1021.9 0 20.0 27.6 42.6 111.8 105.5 362.8
08/05 12:00 9.8 95 8.82 9 7 9 1021.9 0 20.3 27.8 43.2 113.4 107.5 369.6
08/05 11:50 9.7 95 8.76 8.9 7 7 1021.9 0 20.1 27.7 43.0 112.9 106.8 367.2
08/05 11:40 9.4 95 8.59 8.6 6 7 1021.9 0 19.8 27.5 42.4 111.3 104.8 360.2
08/05 11:30 9.2 95 8.49 8.4 0 0 1022 0 19.6 27.4 42.1 110.5 103.7 356.2
08/05 11:20 8.8 94 8.18 7.9 0 0 1021.9 0 18.9 27.0 41.0 107.5 99.8 342.7
08/05 11:10 8.8 95 8.27 8 0 0 1022.1 0 19.1 27.2 41.4 108.6 101.1 347.2
08/05 11:00 8.5 94 8.03 7.6 4 7 1022.1 0 18.6 26.9 40.5 106.2 98.1 336.7
08/05 10:50 8.4 94 7.98 7.5 4 6 1022.3 0 18.5 26.8 40.4 105.8 97.6 334.7
08/05 10:40 8.3 94 7.93 7.4 0 0 1022.2 0 18.4 26.8 40.2 105.4 97.0 332.7
08/05 10:30 8.3 95 8.01 7.5 2 7 1022.2 0 18.6 26.9 40.6 106.3 98.1 336.6
08/05 10:20 8.2 95 7.96 7.4 0 0 1022.2 0 18.5 26.8 40.4 105.9 97.5 334.6
08/05 10:10 8 96 7.94 7.4 0 0 1022.2 0 18.4 26.9 40.4 105.9 97.5 334.5
08/05 10:00 7.7 96 7.79 7.1 0 0 1022.2 0 18.1 26.7 39.9 104.6 95.8 328.4
08/05 09:50 7.7 97 7.87 7.3 0 0 1022.3 0 18.3 26.8 40.3 105.5 96.9 332.3
08/05 09:40 7.5 97 7.77 7.1 0 0 1022.3 0 18.1 26.7 40.0 104.7 95.8 328.3
08/05 09:30 7.2 97 7.62 6.8 4 6 1022.3 0 17.8 26.6 39.5 103.4 94.0 322.2
08/05 09:20 7.1 97 7.57 6.7 4 6 1022.4 0 17.7 26.5 39.3 102.9 93.5 320.1
08/05 09:10 7.1 97 7.57 6.7 6 7 1022.4 0 17.7 26.5 39.3 102.9 93.5 320.1
08/05 09:00 7 97 7.52 6.6 4 11 1022.3 0 17.6 26.5 39.1 102.5 92.9 318.1
08/05 08:50 6.9 97 7.47 6.5 0 0 1022.4 1.6 17.5 26.4 39.0 102.1 92.3 316.1
08/05 08:40 6.8 97 7.42 6.4 0 0 1022.3 1.6 17.4 26.3 38.8 101.6 91.7 314.0
08/05 08:30 6.6 97 7.33 6.2 0 0 1022 1.6 17.2 26.2 38.5 100.8 90.7 310.3
08/05 08:20 6.5 97 7.28 6.1 0 0 1021.8 1.6 17.1 26.2 38.3 100.4 90.1 308.2
08/05 08:10 6.5 97 7.28 6.1 0 0 1021.9 1.6 17.1 26.2 38.3 100.4 90.1 308.2
08/05 08:00 6.5 97 7.28 6.1 0 0 1021.8 1.6 17.1 26.2 38.3 100.4 90.1 308.2
08/05 07:50 6.4 97 7.23 6 0 0 1021.7 1.6 17.0 26.1 38.2 99.9 89.5 306.1
08/05 07:40 6.4 98 7.31 6.1 7 9 1021.7 1.6 17.2 26.2 38.5 100.8 90.6 310.0
08/05 07:30 6.3 97 7.18 5.9 7 9 1021.7 1.6 16.9 26.1 38.0 99.5 88.9 304.1
08/05 07:20 6.3 97 7.18 5.9 6 7 1021.7 1.6 16.9 26.1 38.0 99.5 88.9 304.1
08/05 07:10 6.3 97 7.18 5.9 6 6 1021.6 1.6 16.9 26.1 38.0 99.5 88.9 304.0
08/05 07:00 6.1 97 7.09 5.7 0 0 1021.6 1.6 16.7 26.0 37.7 98.7 87.9 300.4
08/05 06:50 6.1 97 7.09 5.7 0 0 1021.4 1.2 16.7 25.9 37.7 98.7 87.8 300.4
08/05 06:40 6.1 97 7.09 5.7 0 0 1021.6 1.2 16.7 26.0 37.7 98.7 87.9 300.4
08/05 06:30 6.1 97 7.09 5.7 6 7 1021.7 1.2 16.7 26.0 37.7 98.7 87.9 300.4
08/05 06:20 6.1 97 7.09 5.7 6 6 1021.7 1.2 16.7 26.0 37.7 98.7 87.9 300.4
08/05 06:10 6.1 97 7.09 5.7 6 7 1021.6 1.2 16.7 26.0 37.7 98.7 87.9 300.4
08/05 06:00 6.1 97 7.09 5.7 7 9 1021.7 1.2 16.7 26.0 37.7 98.7 87.9 300.4
08/05 05:50 6.1 97 7.09 5.7 9 11 1021.6 1.2 16.7 26.0 37.7 98.7 87.9 300.4
08/05 05:40 6 96 6.97 5.4 7 7 1021.5 1.2 16.4 25.8 37.3 97.5 86.3 294.9
08/05 05:30 6.1 96 7.02 5.5 11 13 1021.5 1.2 16.5 25.8 37.4 97.9 86.9 297.0
08/05 05:20 6.3 95 7.04 5.6 9 9 1021.5 1.2 16.6 25.8 37.4 97.9 86.9 297.2
08/05 05:10 6.4 94 7.01 5.5 7 9 1021.4 1.2 16.5 25.7 37.2 97.4 86.4 295.3
08/05 05:00 6.6 93 7.02 5.6 2 7 1021.4 1.2 16.5 25.7 37.2 97.3 86.3 295.1
08/05 04:50 6.6 92 6.95 5.4 0 0 1021.3 1.2 16.4 25.6 36.9 96.5 85.3 291.6
08/05 04:40 6.5 91 6.83 5.1 0 0 1021.2 1.2 16.1 25.4 36.4 95.2 83.8 286.2
08/05 04:30 6.5 91 6.83 5.1 0 0 1021.2 1.2 16.1 25.4 36.4 95.2 83.8 286.2
08/05 04:20 6.5 92 6.9 5.3 0 0 1021.3 1.2 16.3 25.5 36.7 96.0 84.8 289.6
08/05 04:10 6.6 93 7.02 5.6 0 0 1021.3 1.2 16.5 25.7 37.2 97.3 86.3 295.0
08/05 04:00 6.6 93 7.02 5.6 0 0 1021.5 1.2 16.5 25.7 37.2 97.3 86.3 295.1
08/05 03:50 6.5 93 6.98 5.5 0 0 1021.4 1.2 16.4 25.6 37.1 96.9 85.9 293.5
08/05 03:40 6.6 93 7.02 5.6 0 0 1021.4 1.2 16.5 25.7 37.2 97.3 86.3 295.1
08/05 03:30 6.6 92 6.95 5.4 0 0 1021.5 1.2 16.4 25.6 36.9 96.5 85.3 291.7
08/05 03:20 6.5 89 6.68 4.8 0 0 1021.3 1.2 15.8 25.1 35.8 93.6 81.7 279.0
08/05 03:10 6.5 91 6.83 5.1 0 0 1021.4 1.2 16.1 25.4 36.4 95.3 83.8 286.3
08/05 03:00 6.5 90 6.75 5 0 0 1021.3 1.2 15.9 25.3 36.1 94.4 82.7 282.4
08/05 02:50 6.4 91 6.78 5 0 0 1021.2 1.2 16.0 25.3 36.3 94.8 83.2 284.2
08/05 02:40 6.4 91 6.78 5 0 0 1021.4 1.2 16.0 25.3 36.3 94.8 83.2 284.2
08/05 02:30 6.4 92 6.86 5.2 0 0 1021.3 1.2 16.2 25.5 36.6 95.7 84.3 288.1
08/05 02:20 6.5 92 6.9 5.3 0 0 1021.4 1.2 16.3 25.5 36.7 96.0 84.8 289.6
08/05 02:10 6.4 92 6.86 5.2 0 0 1021.4 1.2 16.2 25.5 36.6 95.7 84.3 288.1
08/05 02:00 6.4 93 6.93 5.4 6 7 1021.5 1.2 16.3 25.6 36.9 96.5 85.3 291.5
08/05 01:50 6.4 92 6.86 5.2 6 7 1021.6 1.2 16.2 25.5 36.6 95.7 84.3 288.1
08/05 01:40 6.5 93 6.98 5.5 4 7 1021.7 1.2 16.4 25.7 37.1 97.0 85.9 293.6
08/05 01:30 6.5 93 6.98 5.5 0 0 1021.8 1.2 16.4 25.7 37.1 97.0 85.9 293.6
08/05 01:20 6.5 93 6.98 5.5 0 0 1022.1 1.2 16.4 25.7 37.1 97.0 85.9 293.7
08/05 01:10 6.3 91 6.74 4.9 0 0 1022.1 1.2 15.9 25.3 36.2 94.6 82.8 282.8
08/05 01:00 6.4 93 6.93 5.4 0 0 1021.9 1.2 16.3 25.6 36.9 96.6 85.3 291.6
08/05 00:50 6.3 93 6.89 5.3 0 0 1021.9 1.2 16.3 25.6 36.8 96.2 84.9 290.0
08/05 00:40 6.4 92 6.86 5.2 0 0 1022.2 1.2 16.2 25.5 36.6 95.8 84.4 288.3
08/05 00:20 6.4 89 6.64 4.7 0 2 1022.4 1.2 15.7 25.1 35.7 93.4 81.4 277.7
08/05 00:10 6.3 90 6.67 4.8 6 6 1022.4 1.2 15.8 25.2 35.9 93.8 81.9 279.5
08/05 00:00 6.3 91 6.74 4.9 6 7 1022.4 1.2 15.9 25.3 36.2 94.6 82.9 282.9
07/05 23:50 6.4 89 6.64 4.7 6 6 1022.5 1.2 15.7 25.1 35.7 93.4 81.4 277.8
07/05 23:40 6.6 89 6.72 4.9 7 9 1022.6 1.2 15.9 25.2 36.0 94.0 82.3 280.9
07/05 23:30 6.8 83 6.35 4.1 6 7 1022.3 1.2 15.1 24.5 34.4 89.7 77.0 262.6
07/05 23:20 6.8 84 6.43 4.3 6 7 1022.5 1.2 15.2 24.7 34.7 90.6 78.1 266.4
07/05 23:10 6.7 84 6.39 4.2 6 7 1022.7 1.2 15.2 24.7 34.6 90.3 77.7 264.9
07/05 23:00 6.7 84 6.39 4.2 7 11 1022.6 1.2 15.2 24.7 34.6 90.3 77.7 264.9
07/05 22:50 6.9 78 6.01 3.3 9 9 1022.8 1.2 14.3 24.0 33.0 86.0 72.5 246.5
07/05 22:40 6.4 82 6.11 3.6 9 9 1022.8 1.2 14.6 24.3 33.6 87.6 74.3 252.8
07/05 22:30 6.2 84 6.18 3.7 7 7 1023 1.2 14.7 24.5 34.0 88.6 75.4 256.7
07/05 22:20 6.7 81 6.16 3.7 6 7 1023 1.2 14.7 24.3 33.7 87.8 74.6 254.2
07/05 22:10 6.5 87 6.53 4.5 9 9 1022.9 1.2 15.5 25.0 35.3 92.1 79.8 272.3
07/05 22:00 6.8 81 6.2 3.8 6 9 1023 1.2 14.7 24.3 33.8 88.2 75.1 255.7
07/05 21:50 6.8 82 6.27 3.9 6 7 1022.9 1.2 14.9 24.4 34.1 88.9 76.0 259.0
07/05 21:40 6.6 85 6.42 4.3 9 9 1023 1.2 15.2 24.7 34.8 90.8 78.2 266.7
07/05 21:30 6.7 84 6.39 4.2 7 11 1023 1.2 15.2 24.7 34.6 90.3 77.7 265.0
07/05 21:20 6.9 81 6.24 3.9 6 7 1022.9 1.2 14.8 24.4 33.9 88.5 75.5 257.2
07/05 21:10 6.8 84 6.43 4.3 7 9 1022.7 1.2 15.2 24.7 34.7 90.6 78.1 266.5
07/05 21:00 6.6 88 6.65 4.8 9 11 1022.6 1.2 15.7 25.1 35.7 93.3 81.3 277.6
07/05 20:50 6.6 89 6.72 4.9 7 7 1022.7 1.2 15.9 25.2 36.0 94.1 82.3 280.9
07/05 20:40 6.7 87 6.61 4.7 7 9 1022.5 1.2 15.6 25.0 35.5 92.7 80.7 275.3
07/05 20:30 6.9 82 6.32 4 7 11 1022.5 1.2 15.0 24.5 34.2 89.3 76.6 260.9
07/05 20:20 7.3 77 6.09 3.5 7 9 1022.5 1.2 14.5 24.0 33.1 86.4 73.1 248.9
07/05 20:10 7 81 6.28 4 7 9 1022.5 1.2 14.9 24.4 34.0 88.8 75.9 258.7
07/05 20:00 6.8 84 6.43 4.3 0 6 1022.4 1.2 15.2 24.7 34.7 90.6 78.1 266.4
07/05 19:50 6.8 84 6.43 4.3 0 0 1022.6 1.2 15.2 24.7 34.7 90.6 78.1 266.4

Last Refresh: 08-May-2026 12:08:18

Bureau of Meteorology